createdAt,value
2019-02-10T00:00:41.541Z,74.51
2019-02-10T00:01:51.476Z,74.51
2019-02-10T00:03:01.159Z,74.03
2019-02-10T00:04:10.596Z,74.6
2019-02-10T00:05:20.309Z,74.12
2019-02-10T00:06:30.241Z,73.74
2019-02-10T00:07:39.665Z,74.79
2019-02-10T00:08:49.598Z,74.51
2019-02-10T00:09:59.690Z,74.51
2019-02-10T00:11:09.371Z,74.79
2019-02-10T00:12:18.809Z,75.07
2019-02-10T00:13:28.736Z,75.26
2019-02-10T00:14:37.936Z,75.36
2019-02-10T00:15:47.132Z,75.17
2019-02-10T00:16:56.811Z,75.17
2019-02-10T00:18:06.485Z,75.26
2019-02-10T00:19:15.932Z,75.36
2019-02-10T00:20:25.853Z,75.07
2019-02-10T00:21:35.530Z,75.55
2019-02-10T00:22:45.219Z,75.17
2019-02-10T00:23:54.398Z,75.17
2019-02-10T00:25:04.333Z,75.45
2019-02-10T00:26:13.760Z,75.17
2019-02-10T00:27:23.439Z,75.36
2019-02-10T00:28:32.614Z,75.36
2019-02-10T00:29:42.043Z,75.64
2019-02-10T00:30:51.226Z,75.64
2019-02-10T00:32:00.901Z,75.55
2019-02-10T00:33:10.381Z,75.36
2019-02-10T00:34:19.808Z,75.36
2019-02-10T00:35:29.482Z,75.45
2019-02-10T00:36:38.660Z,75.64
2019-02-10T00:37:48.598Z,75.84
2019-02-10T00:38:57.773Z,75.55
2019-02-10T00:40:07.197Z,75.74
2019-02-10T00:41:17.121Z,76.31
2019-02-10T00:42:26.805Z,75.64
2019-02-10T00:43:36.226Z,76.4
2019-02-10T00:44:46.150Z,75.84
2019-02-10T00:45:56.086Z,75.74
2019-02-10T00:47:05.517Z,75.45
2019-02-10T00:48:15.252Z,76.31
2019-02-10T00:49:24.948Z,76.21
2019-02-10T00:50:34.389Z,75.93
2019-02-10T00:51:44.081Z,76.31
2019-02-10T00:52:53.750Z,76.12
2019-02-10T00:54:03.186Z,76.12
2019-02-10T00:55:12.648Z,76.4
2019-02-10T00:56:22.074Z,75.74
2019-02-10T00:57:31.504Z,75.17
2019-02-10T00:58:40.714Z,75.64
2019-02-10T00:59:50.393Z,76.59
2019-02-10T01:01:00.327Z,76.12
2019-02-10T01:02:10.261Z,76.31
2019-02-10T01:03:19.938Z,76.4
2019-02-10T01:04:29.376Z,76.12
2019-02-10T01:05:39.308Z,76.03
2019-02-10T01:06:49.237Z,76.12
2019-02-10T01:07:58.661Z,76.21
2019-02-10T01:09:08.348Z,76.5
2019-02-10T01:10:18.072Z,75.55
2019-02-10T01:11:27.749Z,76.5
2019-02-10T01:12:36.928Z,76.59
2019-02-10T01:13:46.619Z,76.31
2019-02-10T01:14:56.293Z,76.5
2019-02-10T01:16:05.974Z,76.12
2019-02-10T01:17:15.156Z,76.31
2019-02-10T01:18:24.591Z,76.12
2019-02-10T01:19:34.520Z,76.4
2019-02-10T01:20:44.453Z,76.59
2019-02-10T01:21:54.383Z,76.12
2019-02-10T01:23:03.809Z,76.12
2019-02-10T01:24:12.998Z,76.12
2019-02-10T01:25:22.677Z,76.25
2019-02-10T01:26:32.353Z,76.12
2019-02-10T01:27:42.026Z,76.31
2019-02-10T01:28:51.448Z,76.59
2019-02-10T01:30:01.395Z,76.12
2019-02-10T01:31:11.078Z,76.78
2019-02-10T01:32:20.769Z,76.12
2019-02-10T01:33:29.941Z,76.12
2019-02-10T01:34:39.116Z,76.12
2019-02-10T01:35:48.791Z,76.12
2019-02-10T01:36:58.739Z,76.21
2019-02-10T01:38:08.413Z,76.12
2019-02-10T01:39:17.830Z,76.31
2019-02-10T01:40:27.262Z,76.31
2019-02-10T01:41:36.441Z,76.5
2019-02-10T01:42:46.120Z,76.12
2019-02-10T01:43:55.810Z,76.12
2019-02-10T01:45:05.742Z,76.12
2019-02-10T01:46:15.419Z,76.21
2019-02-10T01:47:25.107Z,76.69
2019-02-10T01:48:35.033Z,76.78
2019-02-10T01:49:44.964Z,76.59
2019-02-10T01:50:54.888Z,76.59
2019-02-10T01:52:04.307Z,76.88
2019-02-10T01:53:13.988Z,76.69
2019-02-10T01:54:23.433Z,76.69
2019-02-10T01:55:33.129Z,76.59
2019-02-10T01:56:42.808Z,76.4
2019-02-10T01:57:52.234Z,77.36
2019-02-10T01:59:01.935Z,76.69
2019-02-10T02:00:11.864Z,76.78
2019-02-10T02:01:21.802Z,76.88
2019-02-10T02:02:30.982Z,76.78
2019-02-10T02:03:40.399Z,76.78
2019-02-10T02:04:50.314Z,76.03
2019-02-10T02:05:59.986Z,75.93
2019-02-10T02:07:09.416Z,76.5
2019-02-10T02:08:19.098Z,76.12
2019-02-10T02:09:28.277Z,76.12
2019-02-10T02:10:37.221Z,75.84
2019-02-10T02:11:46.901Z,75.64
2019-02-10T02:12:56.584Z,75.84
2019-02-10T02:14:06.277Z,75.17
2019-02-10T02:15:15.952Z,75.36
2019-02-10T02:16:25.882Z,75.64
2019-02-10T02:17:35.319Z,75.36
2019-02-10T02:18:45.252Z,75.45
2019-02-10T02:19:55.193Z,75.45
2019-02-10T02:21:05.136Z,75.45
2019-02-10T02:22:15.060Z,75.55
2019-02-10T02:23:24.741Z,75.45
2019-02-10T02:24:34.421Z,75.26
2019-02-10T02:25:44.100Z,75.17
2019-02-10T02:29:51.970Z,75.17
2019-02-10T02:31:01.929Z,75.17
2019-02-10T02:32:11.901Z,74.79
2019-02-10T02:33:21.845Z,75.45
2019-02-10T02:34:31.528Z,75.26
2019-02-10T02:35:41.479Z,75.26
2019-02-10T02:36:51.170Z,75.17
2019-02-10T02:38:10.236Z,74.51
2019-02-10T02:39:19.917Z,74.85
2019-02-10T02:40:29.862Z,74.66
2019-02-10T02:41:39.049Z,74.56
2019-02-10T02:42:48.998Z,74.66
2019-02-10T02:43:58.713Z,74.37
2019-02-10T02:45:10.300Z,74.56
2019-02-10T02:46:19.995Z,74.08
2019-02-10T02:47:29.433Z,74.56
2019-02-10T02:48:38.882Z,73.52
2019-02-10T02:49:48.596Z,73.61
2019-02-10T02:50:58.278Z,73.42
2019-02-10T02:52:08.464Z,73.52
2019-02-10T02:53:18.433Z,73.23
2019-02-10T02:54:28.373Z,73.52
2019-02-10T02:55:38.071Z,73.52
2019-02-10T02:56:47.800Z,72.75
2019-02-10T02:57:57.482Z,73.33
2019-02-10T02:59:07.181Z,73.14
2019-02-10T03:00:16.677Z,72.56
2019-02-10T03:01:26.614Z,72.66
2019-02-10T03:02:36.311Z,72.47
2019-02-10T03:03:46.240Z,72.75
2019-02-10T03:04:55.942Z,72.19
2019-02-10T03:06:05.378Z,72.28
2019-02-10T03:07:20.664Z,72.19
2019-02-10T03:08:30.594Z,72.09
2019-02-10T03:09:40.533Z,71.23
2019-02-10T03:10:49.977Z,71.43
2019-02-10T03:11:59.658Z,72
2019-02-10T03:13:09.610Z,71.43
2019-02-10T03:14:19.303Z,71.43
2019-02-10T03:15:28.249Z,71.52
2019-02-10T03:16:37.682Z,71.81
2019-02-10T03:17:47.650Z,71.81
2019-02-10T03:18:57.338Z,71.43
2019-02-10T03:20:07.031Z,71.14
2019-02-10T03:21:16.244Z,70.76
2019-02-10T03:22:25.678Z,70.67
2019-02-10T03:23:35.132Z,70.86
2019-02-10T03:24:45.071Z,70.67
2019-02-10T03:25:54.767Z,70.86
2019-02-10T03:27:04.449Z,70.95
2019-02-10T03:28:14.400Z,70.95
2019-02-10T03:29:23.835Z,70.67
2019-02-10T03:30:33.781Z,70.1
2019-02-10T03:31:43.552Z,70.86
2019-02-10T03:32:53.294Z,70.38
2019-02-10T03:36:26.256Z,70.38
2019-02-10T03:37:35.950Z,70.1
2019-02-10T03:38:45.637Z,69.91
2019-02-10T03:39:55.582Z,69.81
2019-02-10T03:41:05.463Z,69.53
2019-02-10T03:42:15.413Z,69.43
2019-02-10T03:43:25.344Z,70.1
2019-02-10T03:44:34.779Z,69.62
2019-02-10T03:45:44.215Z,69.24
2019-02-10T03:46:53.901Z,69.43
2019-02-10T03:48:03.852Z,69.34
2019-02-10T03:49:13.809Z,69.53
2019-02-10T03:50:23.745Z,69.81
2019-02-10T03:51:33.524Z,69.34
2019-02-10T03:52:43.209Z,69.53
2019-02-10T03:53:52.897Z,69.43
2019-02-10T03:55:02.885Z,68.77
2019-02-10T03:56:12.875Z,69.15
2019-02-10T03:57:22.840Z,69.34
2019-02-10T03:58:32.788Z,68.58
2019-02-10T03:59:42.740Z,68.77
2019-02-10T04:00:52.175Z,69.43
2019-02-10T04:02:02.111Z,69.43
2019-02-10T04:03:12.102Z,69.15
2019-02-10T04:04:22.031Z,69.43
2019-02-10T04:05:31.709Z,69.34
2019-02-10T04:06:41.395Z,68.86
2019-02-10T04:07:51.347Z,68.67
2019-02-10T04:09:01.275Z,69.34
2019-02-10T04:10:10.981Z,69.43
2019-02-10T04:11:20.416Z,69.34
2019-02-10T04:12:30.113Z,69.43
2019-02-10T04:13:40.059Z,69.53
2019-02-10T04:14:49.992Z,68.96
2019-02-10T04:15:59.188Z,68.86
2019-02-10T04:17:08.866Z,68.67
2019-02-10T04:18:18.289Z,68.67
2019-02-10T04:19:28.009Z,68.96
2019-02-10T04:20:37.451Z,68.58
2019-02-10T04:21:46.886Z,68.96
2019-02-10T04:22:56.826Z,69.53
2019-02-10T04:24:06.247Z,69.34
2019-02-10T04:25:15.934Z,68.96
2019-02-10T04:26:25.365Z,69.43
2019-02-10T04:27:35.314Z,69.15
2019-02-10T04:28:45.250Z,69.15
2019-02-10T04:29:54.464Z,69.53
2019-02-10T04:31:03.641Z,69.62
2019-02-10T04:32:13.078Z,69.62
2019-02-10T04:33:23.021Z,69.43
2019-02-10T04:34:32.955Z,69.62
2019-02-10T04:35:42.894Z,69.53
2019-02-10T04:36:52.604Z,68.67
2019-02-10T04:38:02.296Z,68.01
2019-02-10T04:39:11.971Z,68.96
2019-02-10T04:40:21.917Z,68.39
2019-02-10T04:41:31.632Z,68.58
2019-02-10T04:42:41.591Z,68.39
2019-02-10T04:43:51.271Z,68.1
2019-02-10T04:45:01.217Z,68.01
2019-02-10T04:46:10.678Z,68.29
2019-02-10T04:47:20.622Z,68.58
2019-02-10T04:48:30.308Z,68.01
2019-02-10T04:49:39.733Z,68.1
2019-02-10T04:50:48.909Z,67.82
2019-02-10T04:51:58.856Z,67.63
2019-02-10T04:53:08.567Z,67.15
2019-02-10T04:54:18.491Z,66.96
2019-02-10T04:55:28.205Z,66.39
2019-02-10T04:56:37.666Z,66.49
2019-02-10T04:57:47.589Z,66.2
2019-02-10T04:58:57.269Z,65.54
2019-02-10T05:00:07.067Z,65.44
2019-02-10T05:01:16.762Z,65.06
2019-02-10T05:02:26.709Z,65.06
2019-02-10T05:03:36.646Z,63.92
2019-02-10T05:04:46.591Z,63.64
2019-02-10T05:05:56.023Z,62.78
2019-02-10T05:07:05.967Z,62.59
2019-02-10T05:08:15.664Z,61.83
2019-02-10T05:09:25.361Z,61.07
2019-02-10T05:10:35.053Z,61.65
2019-02-10T05:11:44.766Z,60.79
2019-02-10T05:12:54.449Z,60.5
2019-02-10T05:14:04.389Z,60.98
2019-02-10T05:15:14.067Z,60.5
2019-02-10T05:16:24.000Z,60.31
2019-02-10T05:17:33.705Z,59.46
2019-02-10T05:18:43.387Z,59.27
2019-02-10T05:19:52.823Z,58.13
2019-02-10T05:21:02.503Z,58.22
2019-02-10T05:22:12.433Z,58.03
2019-02-10T05:23:22.127Z,57.28
2019-02-10T05:24:31.813Z,56.99
2019-02-10T05:25:41.746Z,57.18
2019-02-10T05:26:50.924Z,56.89
2019-02-10T05:28:00.359Z,56.8
2019-02-10T05:29:10.207Z,56.61
2019-02-10T05:30:19.894Z,56.23
2019-02-10T05:31:29.622Z,55.85
2019-02-10T05:32:39.568Z,55.57
2019-02-10T05:33:49.507Z,54.99
2019-02-10T05:34:59.195Z,54.43
2019-02-10T05:36:08.876Z,53.38
2019-02-10T05:37:18.841Z,53.57
2019-02-10T05:38:28.304Z,52.91
2019-02-10T05:39:37.998Z,52.14
2019-02-10T05:40:47.700Z,51.2
2019-02-10T05:41:57.386Z,51.39
2019-02-10T05:43:06.574Z,49.58
2019-02-10T05:44:16.547Z,49.1
2019-02-10T05:45:26.234Z,49.68
2019-02-10T05:46:36.163Z,48.63
2019-02-10T05:47:46.104Z,47.58
2019-02-10T05:48:56.046Z,47.49
2019-02-10T05:50:06.054Z,46.83
2019-02-10T05:51:16.005Z,46.35
2019-02-10T05:52:25.208Z,45.02
2019-02-10T05:53:34.908Z,43.98
2019-02-10T05:54:44.354Z,43.21
2019-02-10T05:55:54.318Z,43.41
2019-02-10T05:57:04.006Z,42.83
2019-02-10T05:58:13.467Z,42.27
2019-02-10T05:59:23.456Z,42.27
2019-02-10T06:00:33.401Z,41.5
2019-02-10T06:01:42.839Z,41.22
2019-02-10T06:02:52.556Z,40.17
2019-02-10T06:04:02.249Z,39.89
2019-02-10T06:05:11.945Z,39.89
2019-02-10T06:06:21.712Z,38.85
2019-02-10T06:07:30.908Z,37.8
2019-02-10T06:08:40.832Z,37.33
2019-02-10T06:09:50.764Z,38.09
2019-02-10T06:11:00.717Z,37.04
2019-02-10T06:12:10.411Z,37.04
2019-02-10T06:13:19.856Z,36.38
2019-02-10T06:14:29.784Z,36.28
2019-02-10T06:15:39.482Z,36.47
2019-02-10T06:16:49.164Z,35.81
2019-02-10T06:17:58.837Z,36.28
2019-02-10T06:19:08.287Z,36
2019-02-10T06:20:18.230Z,35.42
2019-02-10T06:21:28.170Z,36.09
2019-02-10T06:22:37.847Z,35.61
2019-02-10T06:23:47.782Z,34.76
2019-02-10T06:24:57.489Z,33.62
2019-02-10T06:26:07.651Z,33.53
2019-02-10T06:27:17.615Z,32.77
2019-02-10T06:28:26.546Z,33.34
2019-02-10T06:29:36.479Z,32.86
2019-02-10T06:30:46.206Z,32.48
2019-02-10T06:31:55.893Z,32.86
2019-02-10T06:33:05.568Z,32.1
2019-02-10T06:34:15.259Z,31.25
2019-02-10T06:35:24.691Z,31.34
2019-02-10T06:36:34.633Z,30.49
2019-02-10T06:37:44.385Z,30.4
2019-02-10T06:38:54.065Z,29.06
2019-02-10T06:40:04.023Z,29.06
2019-02-10T06:41:13.725Z,28.49
2019-02-10T06:42:23.420Z,27.36
2019-02-10T06:43:33.106Z,26.31
2019-02-10T06:44:42.791Z,25.74
2019-02-10T06:45:52.281Z,24.6
2019-02-10T06:47:01.959Z,23.74
2019-02-10T06:48:11.382Z,23.18
2019-02-10T06:49:21.085Z,23.27
2019-02-10T06:50:31.011Z,22.41
2019-02-10T06:51:40.943Z,21.56
2019-02-10T06:52:50.373Z,21.66
2019-02-10T06:54:00.300Z,22.21
2019-02-10T06:55:09.730Z,21.75
2019-02-10T06:56:18.908Z,21.66
2019-02-10T06:57:28.327Z,21.28
2019-02-10T06:58:38.249Z,21.75
2019-02-10T06:59:47.937Z,21.56
2019-02-10T07:00:57.612Z,21.08
2019-02-10T07:02:07.292Z,20.14
2019-02-10T07:03:16.989Z,19.37
2019-02-10T07:04:26.662Z,19.09
2019-02-10T07:05:36.102Z,18.23
2019-02-10T07:06:45.781Z,17.27
2019-02-10T07:07:55.232Z,15.85
2019-02-10T07:09:04.658Z,14.71
2019-02-10T07:10:14.345Z,14.52
2019-02-10T07:11:23.515Z,14.52
2019-02-10T07:12:33.447Z,15
2019-02-10T07:13:42.870Z,14.71
2019-02-10T07:14:52.547Z,14.33
2019-02-10T07:16:01.969Z,14.24
2019-02-10T07:17:11.639Z,14.52
2019-02-10T07:18:21.329Z,14.52
2019-02-10T07:19:31.019Z,14.33
2019-02-10T07:20:40.976Z,14.62
2019-02-10T07:21:50.907Z,15.66
2019-02-10T07:23:00.102Z,15.76
2019-02-10T07:24:09.288Z,15.85
2019-02-10T07:25:19.225Z,15.47
2019-02-10T07:26:29.161Z,15.09
2019-02-10T07:27:39.092Z,16.42
2019-02-10T07:28:49.014Z,17.27
2019-02-10T07:29:58.937Z,17.27
2019-02-10T07:31:08.124Z,17.18
2019-02-10T07:32:17.796Z,18.41
2019-02-10T07:33:27.725Z,18.98
2019-02-10T07:34:37.669Z,18.51
2019-02-10T07:35:55.593Z,18.7
2019-02-10T07:37:05.587Z,18.98
2019-02-10T07:38:15.287Z,18.98
2019-02-10T07:39:24.720Z,18.41
2019-02-10T07:40:34.690Z,19.56
2019-02-10T07:41:44.633Z,19.27
2019-02-10T07:42:54.308Z,18.98
2019-02-10T07:44:03.991Z,19.18
2019-02-10T07:45:13.922Z,18.7
2019-02-10T07:46:23.858Z,19.65
2019-02-10T07:47:33.534Z,19.46
2019-02-10T07:48:43.208Z,20.98
2019-02-10T07:49:52.632Z,22.12
2019-02-10T07:51:02.069Z,20.98
2019-02-10T07:52:11.502Z,21.45
2019-02-10T07:53:21.189Z,21.36
2019-02-10T07:54:31.289Z,20.69
2019-02-10T07:55:47.506Z,21.55
2019-02-10T07:56:57.191Z,20.41
2019-02-10T07:58:06.866Z,18.32
2019-02-10T07:59:16.571Z,18.41
2019-02-10T08:00:26.491Z,18.13
2019-02-10T08:01:36.171Z,17.94
2019-02-10T08:02:45.360Z,17.75
2019-02-10T08:03:55.050Z,17.85
2019-02-10T08:05:04.977Z,16.71
2019-02-10T08:06:14.667Z,16.33
2019-02-10T08:07:24.590Z,16.52
2019-02-10T08:08:34.533Z,16.04
2019-02-10T08:09:51.688Z,15
2019-02-10T08:11:01.612Z,14.43
2019-02-10T08:12:11.291Z,13.85
2019-02-10T08:13:20.976Z,13
2019-02-10T08:14:30.651Z,12.05
2019-02-10T08:15:40.578Z,12.24
2019-02-10T08:16:50.502Z,12.15
2019-02-10T08:18:00.608Z,11.49
2019-02-10T08:20:14.533Z,10.91
2019-02-10T08:21:24.530Z,10.63
2019-02-10T08:22:33.969Z,11.01
2019-02-10T08:23:43.647Z,11.01
2019-02-10T08:24:53.077Z,10.53
2019-02-10T08:26:03.187Z,10.53
2019-02-10T08:27:12.937Z,10.25
2019-02-10T08:28:22.879Z,9.78
2019-02-10T08:29:32.329Z,9.87
2019-02-10T08:30:42.020Z,9.97
2019-02-10T08:31:51.512Z,9.2
2019-02-10T08:33:00.954Z,8.73
2019-02-10T08:34:10.896Z,8.64
2019-02-10T08:35:20.582Z,8.54
2019-02-10T08:36:30.504Z,8.54
2019-02-10T08:37:39.939Z,8.07
2019-02-10T08:38:56.916Z,8.16
2019-02-10T08:40:05.847Z,8.54
2019-02-10T08:41:15.275Z,8.64
2019-02-10T08:42:24.949Z,8.35
2019-02-10T08:43:34.881Z,8.16
2019-02-10T08:44:44.609Z,8.07
2019-02-10T08:45:54.037Z,7.78
2019-02-10T08:47:03.470Z,7.88
2019-02-10T08:48:13.414Z,7.21
2019-02-10T08:49:23.099Z,6.74
2019-02-10T08:50:33.314Z,6.17
2019-02-10T08:51:43.253Z,5.6
2019-02-10T08:52:54.555Z,5.98
2019-02-10T08:54:04.508Z,5.98
2019-02-10T08:55:14.180Z,5.88
2019-02-10T08:56:24.106Z,5.69
2019-02-10T08:57:33.280Z,5.98
2019-02-10T08:58:42.213Z,5.6
2019-02-10T08:59:51.886Z,5.6
2019-02-10T09:01:01.330Z,5.88
2019-02-10T09:02:11.323Z,5.6
2019-02-10T09:03:22.286Z,5.51
2019-02-10T09:04:32.218Z,5.69
2019-02-10T09:05:41.146Z,6.17
2019-02-10T09:06:50.322Z,6.36
2019-02-10T09:08:00.252Z,6.26
2019-02-10T09:09:10.209Z,5.51
2019-02-10T09:10:20.149Z,5.41
2019-02-10T09:11:30.102Z,5.22
2019-02-10T09:12:39.548Z,4.84
2019-02-10T09:13:49.225Z,4.55
2019-02-10T09:14:58.896Z,4.36
2019-02-10T09:16:08.327Z,3.99
2019-02-10T09:17:18.256Z,4.17
2019-02-10T09:18:28.184Z,4.08
2019-02-10T09:19:38.114Z,3.89
2019-02-10T09:20:47.792Z,3.13
2019-02-10T09:21:57.234Z,3.03
2019-02-10T09:23:06.657Z,3.22
2019-02-10T09:24:16.326Z,3.32
2019-02-10T09:25:26.009Z,2.84
2019-02-10T09:26:35.701Z,2.94
2019-02-10T09:27:45.629Z,2.56
2019-02-10T09:28:55.563Z,2.18
2019-02-10T09:30:05.289Z,1.99
2019-02-10T09:31:14.959Z,2.18
2019-02-10T09:32:24.384Z,2.09
2019-02-10T09:33:34.118Z,1.8
2019-02-10T09:34:43.288Z,1.51
2019-02-10T09:35:53.018Z,1.7
2019-02-10T09:37:02.465Z,1.99
2019-02-10T09:38:12.563Z,1.99
2019-02-10T09:39:22.525Z,1.99
2019-02-10T09:40:32.493Z,1.99
2019-02-10T09:41:42.432Z,1.61
2019-02-10T09:42:51.850Z,1.7
2019-02-10T09:44:01.780Z,1.8
2019-02-10T09:45:11.463Z,1.8
2019-02-10T09:46:21.196Z,1.9
2019-02-10T09:47:30.872Z,1.99
2019-02-10T09:48:40.573Z,2.09
2019-02-10T09:49:50.247Z,1.7
2019-02-10T09:50:59.169Z,1.61
2019-02-10T09:52:08.609Z,1.51
2019-02-10T09:53:18.549Z,1.9
2019-02-10T09:54:28.248Z,1.99
2019-02-10T09:55:37.956Z,1.8
2019-02-10T09:56:47.386Z,1.61
2019-02-10T09:57:56.855Z,1.32
2019-02-10T09:59:06.806Z,1.04
2019-02-10T10:00:16.743Z,0.66
2019-02-10T10:01:26.169Z,0.95
2019-02-10T10:02:36.103Z,0.85
2019-02-10T10:03:45.791Z,0.57
2019-02-10T10:04:54.966Z,0
2019-02-10T10:06:04.649Z,0
2019-02-10T10:07:14.581Z,0
2019-02-10T10:08:24.505Z,0
2019-02-10T10:09:34.184Z,0
2019-02-10T10:10:44.111Z,0
2019-02-10T10:11:54.052Z,0
2019-02-10T10:13:03.473Z,0
2019-02-10T10:14:13.404Z,0
2019-02-10T10:15:24.750Z,0
2019-02-10T10:16:34.437Z,0
2019-02-10T10:17:44.370Z,0
2019-02-10T10:18:54.047Z,0
2019-02-10T10:20:03.473Z,0
2019-02-10T10:21:13.398Z,0
2019-02-10T10:22:23.081Z,0
2019-02-10T10:23:32.812Z,0
2019-02-10T10:24:50.146Z,0
2019-02-10T14:47:29.908Z,22.08
2019-02-10T14:48:39.828Z,24.27
2019-02-10T14:49:49.764Z,24.55
2019-02-10T14:50:59.438Z,24.65
2019-02-10T14:52:09.382Z,28.27
2019-02-10T14:53:19.319Z,28.27
2019-02-10T14:54:28.997Z,32.55
2019-02-10T14:55:38.694Z,31.98
2019-02-10T14:56:48.621Z,34.74
2019-02-10T14:57:57.797Z,35.69
2019-02-10T14:59:06.977Z,35.88
2019-02-10T15:00:16.684Z,34.83
2019-02-10T15:01:26.117Z,37.21
2019-02-10T15:02:35.793Z,38.92
2019-02-10T15:03:45.726Z,37.02
2019-02-10T15:04:55.668Z,37.59
2019-02-10T15:06:04.973Z,36.74
2019-02-10T15:07:16.403Z,37.59
2019-02-10T15:08:32.762Z,37.59
2019-02-10T15:09:42.713Z,37.12
2019-02-10T15:10:51.646Z,37.21
2019-02-10T15:12:02.390Z,37.4
2019-02-10T15:13:11.584Z,37.02
2019-02-10T15:14:21.281Z,36.07
2019-02-10T15:15:30.719Z,34.36
2019-02-10T15:16:40.650Z,33.97
2019-02-10T15:17:50.090Z,29.68
2019-02-10T15:19:00.029Z,28.06
2019-02-10T15:20:09.469Z,25.78
2019-02-10T15:21:19.156Z,24.82
2019-02-10T15:22:28.844Z,24.92
2019-02-10T15:23:38.519Z,23.68
2019-02-10T15:24:48.218Z,20.54
2019-02-10T15:25:57.899Z,17.22
2019-02-10T15:27:07.832Z,18.26
2019-02-10T15:28:17.772Z,19.69
2019-02-10T15:29:27.458Z,23.21
2019-02-10T15:30:37.385Z,22.35
2019-02-10T15:31:47.071Z,23.78
2019-02-10T15:32:57.009Z,26.16
2019-02-10T15:34:06.700Z,27.87
2019-02-10T15:35:16.377Z,28.82
2019-02-10T15:36:26.300Z,32.82
2019-02-10T15:37:35.739Z,32.06
2019-02-10T15:38:45.427Z,32.51
2019-02-10T15:39:55.109Z,32.42
2019-02-10T15:41:05.038Z,31.76
2019-02-10T15:42:14.464Z,31.47
2019-02-10T15:43:23.900Z,31.47
2019-02-10T15:44:33.844Z,30.33
2019-02-10T15:45:43.579Z,30.8
2019-02-10T15:46:53.528Z,29.95
2019-02-10T15:48:03.455Z,31.09
2019-02-10T15:49:14.764Z,29.47
2019-02-10T15:50:24.444Z,31.09
2019-02-10T15:51:39.726Z,31.18
2019-02-10T15:52:49.415Z,32.9
2019-02-10T15:53:59.101Z,34.42
2019-02-10T15:55:08.284Z,34.89
2019-02-10T15:56:18.268Z,35.08
2019-02-10T15:57:27.695Z,36.13
2019-02-10T15:58:37.135Z,36.79
2019-02-10T15:59:46.811Z,38.03
2019-02-10T16:00:56.487Z,37.74
2019-02-10T16:02:05.932Z,40.69
2019-02-10T16:03:15.609Z,39.26
2019-02-10T16:04:26.429Z,40.12
2019-02-10T16:05:36.435Z,40.12
2019-02-10T16:06:45.865Z,40.59
2019-02-10T16:07:55.535Z,42.5
2019-02-10T16:09:05.462Z,42.12
2019-02-10T16:10:15.140Z,41.74
2019-02-10T16:11:24.575Z,41.55
2019-02-10T16:12:34.252Z,41.46
2019-02-10T16:13:44.176Z,41.36
2019-02-10T16:14:53.852Z,42.21
2019-02-10T16:16:03.517Z,41.55
2019-02-10T16:17:12.939Z,41.17
2019-02-10T16:18:22.617Z,42.21
2019-02-10T16:19:32.043Z,42.6
2019-02-10T16:20:41.469Z,44.78
2019-02-10T16:21:51.158Z,44.85
2019-02-10T16:23:01.088Z,44.97
2019-02-10T16:24:11.028Z,44.78
2019-02-10T16:25:20.475Z,45.42
2019-02-10T16:26:30.157Z,48.01
2019-02-10T16:27:39.582Z,47.8
2019-02-10T16:28:49.500Z,46.66
2019-02-10T16:29:59.171Z,48.27
2019-02-10T16:33:54.613Z,47.8
2019-02-10T16:35:04.041Z,48.85
2019-02-10T16:36:13.967Z,50.08
2019-02-10T16:37:23.646Z,49.51
2019-02-10T16:38:33.089Z,47.89
2019-02-10T16:39:42.514Z,47.42
2019-02-10T16:40:51.946Z,46.47
2019-02-10T16:42:09.221Z,45.33
2019-02-10T16:43:19.658Z,44
2019-02-10T16:44:29.334Z,43.8
2019-02-10T16:45:38.760Z,43.14
2019-02-10T16:46:49.531Z,41.24
2019-02-10T16:47:59.337Z,42.19
2019-02-10T16:49:08.771Z,42.38
2019-02-10T16:50:18.196Z,42.67
2019-02-10T16:51:27.879Z,41.34
2019-02-10T16:52:37.302Z,41.34
2019-02-10T16:53:47.243Z,39.89
2019-02-10T16:54:56.673Z,40.08
2019-02-10T16:56:06.604Z,40.75
2019-02-10T16:57:16.298Z,40.17
2019-02-10T16:58:25.722Z,38.94
2019-02-10T16:59:35.146Z,38.85
2019-02-10T17:00:44.629Z,38.28
2019-02-10T17:01:54.560Z,37.04
2019-02-10T17:03:03.992Z,36.85
2019-02-10T17:04:15.425Z,35.9
2019-02-10T17:05:25.404Z,35.61
2019-02-10T17:06:34.833Z,34.57
2019-02-10T17:07:44.543Z,34.38
2019-02-10T17:08:53.735Z,36.09
2019-02-10T17:10:03.160Z,36.66
2019-02-10T17:11:16.923Z,35.81
2019-02-10T17:12:26.594Z,37.33
2019-02-10T17:13:36.259Z,36.85
2019-02-10T17:14:45.938Z,36.09
2019-02-10T17:15:55.862Z,39.04
2019-02-10T17:17:12.294Z,41.69
2019-02-10T17:18:22.219Z,42.36
2019-02-10T17:19:32.143Z,44.35
2019-02-10T17:20:41.827Z,42.65
2019-02-10T17:21:51.760Z,42.46
2019-02-10T17:23:01.682Z,44.73
2019-02-10T17:24:11.362Z,43.69
2019-02-10T17:25:20.296Z,43.41
2019-02-10T17:26:29.974Z,42.82
2019-02-10T17:27:39.909Z,42.65
2019-02-10T17:28:49.577Z,41.89
2019-02-10T17:29:59.499Z,42.05
2019-02-10T17:31:08.940Z,40.06
2019-02-10T17:32:18.865Z,37.12
2019-02-10T17:33:28.793Z,36.47
2019-02-10T17:34:38.725Z,34.95
2019-02-10T17:35:48.147Z,34.46
2019-02-10T17:36:57.843Z,33.89
2019-02-10T17:38:07.679Z,31.61
2019-02-10T17:39:16.852Z,28.67
2019-02-10T17:40:26.535Z,26.29
2019-02-10T17:41:36.205Z,26.1
2019-02-10T17:42:45.879Z,27.06
2019-02-10T17:43:55.133Z,26.67
2019-02-10T17:45:05.054Z,26.39
2019-02-10T17:46:14.236Z,26.1
2019-02-10T17:47:24.169Z,24.77
2019-02-10T17:48:34.097Z,22.88
2019-02-10T17:49:43.777Z,22.5
2019-02-10T17:50:53.398Z,22.31
2019-02-10T17:52:02.578Z,21.15
2019-02-10T17:53:12.261Z,24.57
2019-02-10T17:54:21.695Z,25.34
2019-02-10T17:55:30.869Z,25.81
2019-02-10T17:56:40.543Z,26.66
2019-02-10T17:57:50.463Z,27.23
2019-02-10T17:59:00.398Z,23.91
2019-02-10T18:00:09.818Z,24.19
2019-02-10T18:01:19.254Z,26.18
2019-02-10T18:02:28.953Z,26.38
2019-02-10T18:06:53.139Z,21.25
2019-02-10T18:08:02.827Z,20.97
2019-02-10T18:09:12.268Z,20.02
2019-02-10T18:10:21.693Z,18.3
2019-02-10T18:11:33.667Z,19.54
2019-02-10T18:12:43.095Z,18.88
2019-02-10T18:13:52.845Z,18.59
2019-02-10T18:15:02.790Z,17.83
2019-02-10T18:16:12.721Z,14.79
2019-02-10T18:17:22.401Z,13.65
2019-02-10T18:18:32.082Z,14.51
2019-02-10T18:19:41.507Z,12.61
2019-02-10T18:20:51.178Z,14.03
2019-02-10T18:22:00.609Z,13.84
2019-02-10T18:23:10.337Z,14.79
2019-02-10T18:24:20.005Z,14.89
2019-02-10T18:25:29.926Z,14.89
2019-02-10T18:26:39.601Z,15.74
2019-02-10T18:27:49.527Z,15.55
2019-02-10T18:28:58.961Z,14.89
2019-02-10T18:30:08.642Z,13.56
2019-02-10T18:31:18.562Z,15.84
2019-02-10T18:32:28.231Z,15.08
2019-02-10T18:33:37.924Z,13.46
2019-02-10T18:34:47.847Z,13.65
2019-02-10T18:35:57.281Z,12.51
2019-02-10T18:37:06.208Z,12.7
2019-02-10T18:38:15.920Z,12.79
2019-02-10T18:39:25.369Z,14.32
2019-02-10T18:42:58.261Z,10.9
2019-02-10T18:44:07.939Z,10.62
2019-02-10T18:45:17.503Z,12.9
2019-02-10T18:46:26.938Z,11.29
2019-02-10T18:47:36.877Z,11.57
2019-02-10T18:48:46.306Z,11.57
2019-02-10T18:49:55.728Z,11.28
2019-02-10T18:51:05.400Z,9.76
2019-02-10T18:52:14.823Z,9
2019-02-10T18:53:24.008Z,8.25
2019-02-10T18:54:33.934Z,9.67
2019-02-10T18:55:42.868Z,10.14
2019-02-10T18:56:52.549Z,10.14
2019-02-10T18:58:02.092Z,11.37
2019-02-10T18:59:12.068Z,10.61
2019-02-10T19:00:21.773Z,10.52
2019-02-10T19:01:31.530Z,8.15
2019-02-10T19:02:41.475Z,8.53
2019-02-10T19:03:51.155Z,7.58
2019-02-10T19:05:00.579Z,5.4
2019-02-10T19:06:10.692Z,5.4
2019-02-10T19:07:20.713Z,7.39
2019-02-10T19:08:30.145Z,7.39
2019-02-10T19:09:39.567Z,12.7
2019-02-10T19:10:48.999Z,10.71
2019-02-10T19:11:58.673Z,9.19
2019-02-10T19:13:08.604Z,8.25
2019-02-10T19:14:18.554Z,12.7
2019-02-10T19:15:27.971Z,13.08
2019-02-10T19:16:37.398Z,9.19
2019-02-10T19:17:47.067Z,9.47
2019-02-10T19:18:56.296Z,8.72
2019-02-10T19:20:06.023Z,8.24
2019-02-10T19:21:15.469Z,8.34
2019-02-10T19:22:24.884Z,6.25
2019-02-10T19:23:34.899Z,4.26
2019-02-10T19:24:44.564Z,5.21
2019-02-10T19:25:54.228Z,4.74
2019-02-10T19:27:03.664Z,7.1
2019-02-10T19:28:13.330Z,5.96
2019-02-10T19:29:22.769Z,7.39
2019-02-10T19:30:32.730Z,5.4
2019-02-10T19:31:42.151Z,6.25
2019-02-10T19:32:51.836Z,4.45
2019-02-10T19:34:01.268Z,3.31
2019-02-10T19:35:11.018Z,3.97
2019-02-10T19:36:20.200Z,3.5
2019-02-10T19:37:30.129Z,4.45
2019-02-10T19:38:39.813Z,3.59
2019-02-10T19:39:49.240Z,1.89
2019-02-10T19:40:58.174Z,0
2019-02-10T19:42:08.111Z,0
2019-02-10T19:43:17.778Z,0
2019-02-10T19:44:27.709Z,0
2019-02-10T19:45:37.638Z,0
2019-02-10T19:46:47.310Z,0